createdAt,value
2023-04-05T00:00:47.184Z,11.33
2023-04-05T00:03:20.275Z,11.57
2023-04-05T00:05:54.745Z,11.97
2023-04-05T00:08:28.501Z,11.87
2023-04-05T00:11:02.838Z,14.00
2023-04-05T00:13:35.841Z,12.47
2023-04-05T00:16:09.396Z,13.07
2023-04-05T00:18:46.091Z,11.77
2023-04-05T00:21:21.687Z,11.83
2023-04-05T00:23:58.462Z,11.40
2023-04-05T00:26:32.794Z,11.00
2023-04-05T00:29:06.027Z,13.33
2023-04-05T00:31:39.053Z,11.77
2023-04-05T00:34:12.517Z,13.00
2023-04-05T00:36:45.538Z,12.60
2023-04-05T00:39:18.686Z,12.53
2023-04-05T00:41:52.997Z,12.67
2023-04-05T00:44:26.651Z,12.47
2023-04-05T00:46:59.631Z,13.07
2023-04-05T00:49:36.409Z,12.03
2023-04-05T00:52:09.530Z,12.13
2023-04-05T00:54:43.373Z,11.90
2023-04-05T00:57:18.252Z,12.57
2023-04-05T00:59:51.843Z,12.30
2023-04-05T01:02:33.785Z,12.57
2023-04-05T01:05:16.344Z,13.23
2023-04-05T01:07:59.678Z,13.00
2023-04-05T01:10:39.660Z,13.03
2023-04-05T01:13:14.190Z,13.77
2023-04-05T01:15:47.289Z,13.90
2023-04-05T01:18:21.971Z,13.67
2023-04-05T01:21:02.937Z,14.47
2023-04-05T01:23:46.559Z,13.63
2023-04-05T01:26:50.031Z,13.17
2023-04-05T01:29:52.295Z,13.90
2023-04-05T01:32:46.200Z,13.90
2023-04-05T01:35:27.100Z,13.73
2023-04-05T01:38:04.912Z,13.77
2023-04-05T01:40:39.205Z,13.50
2023-04-05T01:43:16.042Z,13.57
2023-04-05T01:45:50.445Z,13.77
2023-04-05T01:48:23.502Z,14.13
2023-04-05T01:50:56.559Z,14.57
2023-04-05T01:53:29.566Z,13.87
2023-04-05T01:56:03.199Z,15.20
2023-04-05T01:58:36.172Z,14.10
2023-04-05T02:01:10.577Z,14.20
2023-04-05T02:03:43.726Z,13.30
2023-04-05T02:06:16.796Z,14.30
2023-04-05T02:08:49.786Z,14.53
2023-04-05T02:11:22.754Z,12.97
2023-04-05T02:13:55.733Z,15.03
2023-04-05T02:16:33.420Z,13.47
2023-04-05T02:19:06.994Z,14.07
2023-04-05T02:21:40.874Z,13.23
2023-04-05T02:24:13.950Z,14.33
2023-04-05T02:26:47.080Z,13.40
2023-04-05T02:29:20.092Z,14.47
2023-04-05T02:31:54.573Z,14.27
2023-04-05T02:34:27.592Z,14.10
2023-04-05T02:37:01.800Z,13.33
2023-04-05T02:39:34.831Z,12.67
2023-04-05T02:42:07.869Z,12.57
2023-04-05T02:44:41.087Z,12.67
2023-04-05T02:47:21.199Z,12.17
2023-04-05T02:49:54.202Z,12.27
2023-04-05T02:52:27.199Z,12.67
2023-04-05T02:55:00.160Z,12.17
2023-04-05T02:57:33.145Z,12.83
2023-04-05T03:00:08.925Z,11.50
2023-04-05T03:02:43.281Z,12.17
2023-04-05T03:05:18.718Z,13.77
2023-04-05T03:07:51.937Z,12.60
2023-04-05T03:10:25.265Z,14.57
2023-04-05T03:12:58.685Z,12.93
2023-04-05T03:15:35.634Z,13.27
2023-04-05T03:18:10.674Z,13.97
2023-04-05T03:20:45.789Z,12.73
2023-04-05T03:23:18.905Z,13.23
2023-04-05T03:25:52.698Z,13.33
2023-04-05T03:28:25.901Z,12.53
2023-04-05T03:30:59.008Z,12.30
2023-04-05T03:33:33.323Z,11.33
2023-04-05T03:36:07.134Z,12.50
2023-04-05T03:38:42.538Z,11.63
2023-04-05T03:41:16.243Z,13.67
2023-04-05T03:43:50.002Z,12.13
2023-04-05T03:46:23.125Z,12.03
2023-04-05T03:48:59.091Z,13.13
2023-04-05T03:51:32.686Z,12.57
2023-04-05T03:54:06.168Z,12.10
2023-04-05T03:56:39.257Z,12.93
2023-04-05T03:59:12.388Z,12.43
2023-04-05T04:01:45.570Z,13.07
2023-04-05T04:04:19.897Z,12.27
2023-04-05T04:06:52.866Z,13.53
2023-04-05T04:09:28.050Z,13.13
2023-04-05T04:12:01.018Z,12.83
2023-04-05T04:14:36.368Z,12.30
2023-04-05T04:17:09.371Z,12.00
2023-04-05T04:19:43.655Z,11.90
2023-04-05T04:22:20.753Z,12.53
2023-04-05T04:24:54.723Z,11.40
2023-04-05T04:27:30.212Z,10.80
2023-04-05T04:30:04.432Z,11.63
2023-04-05T04:32:52.807Z,11.67
2023-04-05T04:35:29.533Z,11.73
2023-04-05T04:38:04.899Z,12.03
2023-04-05T04:40:39.621Z,11.73
2023-04-05T04:43:17.347Z,11.70
2023-04-05T04:45:54.683Z,12.10
2023-04-05T04:48:27.707Z,11.23
2023-04-05T04:51:04.274Z,11.57
2023-04-05T04:53:37.294Z,11.57
2023-04-05T04:56:12.106Z,15.20
2023-04-05T04:58:45.464Z,14.40
2023-04-05T05:01:18.534Z,13.40
2023-04-05T05:03:51.550Z,13.60
2023-04-05T05:06:27.083Z,12.50
2023-04-05T05:09:00.112Z,12.93
2023-04-05T05:11:33.802Z,12.97
2023-04-05T05:14:06.755Z,12.97
2023-04-05T05:16:39.748Z,13.27
2023-04-05T05:19:12.783Z,12.70
2023-04-05T05:21:49.362Z,13.50
2023-04-05T05:24:22.511Z,13.80
2023-04-05T05:26:55.499Z,14.13
2023-04-05T05:29:28.872Z,13.93
2023-04-05T05:32:01.843Z,13.13
2023-04-05T05:34:34.820Z,14.63
2023-04-05T05:37:09.717Z,14.10
2023-04-05T05:39:44.531Z,13.43
2023-04-05T05:42:17.484Z,13.37
2023-04-05T05:44:50.572Z,13.10
2023-04-05T05:47:23.563Z,13.90
2023-04-05T05:49:56.498Z,12.87
2023-04-05T05:52:30.884Z,11.97
2023-04-05T05:55:04.294Z,12.83
2023-04-05T05:57:38.753Z,12.03
2023-04-05T06:00:13.620Z,11.90
2023-04-05T06:02:46.738Z,11.87
2023-04-05T06:05:19.814Z,12.00
2023-04-05T06:07:54.102Z,12.93
2023-04-05T06:10:27.121Z,11.77
2023-04-05T06:13:00.269Z,12.00
2023-04-05T06:15:33.244Z,12.27
2023-04-05T06:18:06.397Z,12.67
2023-04-05T06:20:41.197Z,11.83
2023-04-05T06:23:16.097Z,12.27
2023-04-05T06:25:49.135Z,11.70
2023-04-05T06:28:22.063Z,12.13
2023-04-05T06:30:59.379Z,13.50
2023-04-05T06:33:32.316Z,13.03
2023-04-05T06:36:05.790Z,12.27
2023-04-05T06:38:40.109Z,12.80
2023-04-05T06:41:13.202Z,12.00
2023-04-05T06:43:46.328Z,12.83
2023-04-05T06:46:19.311Z,13.00
2023-04-05T06:48:53.522Z,12.93
2023-04-05T06:51:27.022Z,13.03
2023-04-05T06:54:01.326Z,12.30
2023-04-05T06:56:34.248Z,12.10
2023-04-05T06:59:07.233Z,11.57
2023-04-05T07:01:40.264Z,11.50
2023-04-05T07:04:13.863Z,12.00
2023-04-05T07:06:46.790Z,11.63
2023-04-05T07:09:22.228Z,11.83
2023-04-05T07:11:56.609Z,10.70
2023-04-05T07:14:31.027Z,11.23
2023-04-05T07:17:06.052Z,11.47
2023-04-05T07:19:39.047Z,11.23
2023-04-05T07:22:12.018Z,11.17
2023-04-05T07:24:48.511Z,11.60
2023-04-05T07:27:21.500Z,10.93
2023-04-05T07:29:54.454Z,11.07
2023-04-05T07:32:27.599Z,10.90
2023-04-05T07:35:00.745Z,11.37
2023-04-05T07:37:33.774Z,11.73
2023-04-05T07:40:10.957Z,11.60
2023-04-05T07:42:44.015Z,10.73
2023-04-05T07:45:17.069Z,11.37
2023-04-05T07:47:50.067Z,10.30
2023-04-05T07:50:23.118Z,10.93
2023-04-05T07:52:56.138Z,11.37
2023-04-05T07:55:30.450Z,10.73
2023-04-05T07:58:03.365Z,10.50
2023-04-05T08:00:37.040Z,9.83
2023-04-05T08:03:09.975Z,9.93
2023-04-05T08:05:43.014Z,10.13
2023-04-05T08:08:16.078Z,9.33
2023-04-05T08:10:50.341Z,9.07
2023-04-05T08:13:23.449Z,8.80
2023-04-05T08:15:57.369Z,9.20
2023-04-05T08:18:30.618Z,7.87
2023-04-05T08:21:03.679Z,8.23
2023-04-05T08:23:36.763Z,9.07
2023-04-05T08:26:11.256Z,7.43
2023-04-05T08:28:44.224Z,7.03
2023-04-05T08:31:17.225Z,8.10
2023-04-05T08:33:50.442Z,7.63
2023-04-05T08:36:23.477Z,7.43
2023-04-05T08:38:56.413Z,8.43
2023-04-05T08:41:36.851Z,7.53
2023-04-05T08:44:11.568Z,7.23
2023-04-05T08:46:45.342Z,7.73
2023-04-05T08:49:18.350Z,8.03
2023-04-05T08:51:51.334Z,7.40
2023-04-05T08:54:24.286Z,7.10
2023-04-05T08:57:01.069Z,7.13
2023-04-05T08:59:37.870Z,7.33
2023-04-05T09:02:17.235Z,7.50
2023-04-05T09:04:51.639Z,7.33
2023-04-05T09:07:26.434Z,7.17
2023-04-05T09:10:01.788Z,6.30
2023-04-05T09:12:38.519Z,6.90
2023-04-05T09:15:12.522Z,6.40
2023-04-05T09:17:45.622Z,6.50
2023-04-05T09:20:18.901Z,6.18
2023-04-05T09:22:51.831Z,6.67
2023-04-05T09:25:39.677Z,6.70
2023-04-05T09:28:14.096Z,6.93
2023-04-05T09:30:47.961Z,7.00
2023-04-05T09:33:22.163Z,7.33
2023-04-05T09:35:56.785Z,6.80
2023-04-05T09:38:44.580Z,7.20
2023-04-05T09:41:17.651Z,6.73
2023-04-05T09:43:54.156Z,6.93
2023-04-05T09:46:34.243Z,7.37
2023-04-05T09:49:10.258Z,7.10
2023-04-05T09:51:43.283Z,7.27
2023-04-05T09:54:17.307Z,6.90
2023-04-05T09:56:57.597Z,6.87
2023-04-05T09:59:34.278Z,7.30
2023-04-05T10:02:07.306Z,7.83
2023-04-05T10:04:41.689Z,7.07
2023-04-05T10:07:17.378Z,6.57
2023-04-05T10:09:50.443Z,7.30
2023-04-05T10:12:28.581Z,6.60
2023-04-05T10:15:02.937Z,6.60
2023-04-05T10:17:45.569Z,6.88
2023-04-05T10:20:21.043Z,6.63
2023-04-05T10:23:02.931Z,7.30
2023-04-05T10:25:53.052Z,7.72
2023-04-05T10:28:32.794Z,7.10
2023-04-05T10:31:21.081Z,7.20
2023-04-05T10:34:06.885Z,6.87
2023-04-05T10:36:52.207Z,7.43
2023-04-05T10:39:29.982Z,7.03
2023-04-05T10:42:14.210Z,6.80
2023-04-05T10:44:52.310Z,6.75
2023-04-05T10:47:29.758Z,7.70
2023-04-05T10:50:06.264Z,7.50
2023-04-05T10:52:41.469Z,6.75
2023-04-05T10:55:15.367Z,7.80
2023-04-05T10:57:49.984Z,7.90
2023-04-05T11:00:24.723Z,7.30
2023-04-05T11:02:59.339Z,7.57
2023-04-05T11:05:34.806Z,6.70
2023-04-05T11:08:09.831Z,6.60
2023-04-05T11:10:43.257Z,6.47
2023-04-05T11:13:16.413Z,7.00
2023-04-05T11:16:09.917Z,7.15
2023-04-05T11:18:48.171Z,7.20
2023-04-05T11:21:26.141Z,6.50
2023-04-05T11:24:06.589Z,7.33
2023-04-05T11:26:56.097Z,7.25
2023-04-05T11:29:49.538Z,7.17
2023-04-05T11:32:23.536Z,7.53
2023-04-05T11:35:06.347Z,7.50
2023-04-05T11:37:56.206Z,7.90
2023-04-05T11:40:31.254Z,7.03
2023-04-05T11:43:07.517Z,6.93
2023-04-05T11:45:43.463Z,7.87
2023-04-05T11:48:16.728Z,7.70
2023-04-05T11:50:52.528Z,7.73
2023-04-05T11:53:25.510Z,7.15
2023-04-05T11:56:09.502Z,7.97
2023-04-05T11:58:43.621Z,7.93
2023-04-05T12:01:16.562Z,7.22
2023-04-05T12:03:55.424Z,7.18
2023-04-05T12:06:29.968Z,7.67
2023-04-05T12:09:02.904Z,7.13
2023-04-05T12:11:36.808Z,7.75
2023-04-05T12:14:09.725Z,8.57
2023-04-05T12:16:50.762Z,7.18
2023-04-05T12:19:24.258Z,6.93
2023-04-05T12:21:58.655Z,7.30
2023-04-05T12:24:31.714Z,7.23
2023-04-05T12:27:04.898Z,7.47
2023-04-05T12:29:37.836Z,8.00
2023-04-05T12:32:12.036Z,7.70
2023-04-05T12:34:49.076Z,7.25
2023-04-05T12:37:23.455Z,7.67
2023-04-05T12:39:56.427Z,7.30
2023-04-05T12:42:35.680Z,7.03
2023-04-05T12:45:13.216Z,6.93
2023-04-05T12:47:51.542Z,7.60
2023-04-05T12:50:29.060Z,7.00
2023-04-05T12:53:07.447Z,7.07
2023-04-05T12:55:46.523Z,7.32
2023-04-05T12:58:20.861Z,7.60
2023-04-05T13:00:53.952Z,7.27
2023-04-05T13:03:28.136Z,6.90
2023-04-05T13:06:01.190Z,7.28
2023-04-05T13:08:36.564Z,7.67
2023-04-05T13:11:09.538Z,7.47
2023-04-05T13:13:42.521Z,7.53
2023-04-05T13:16:15.620Z,6.95
2023-04-05T13:18:49.051Z,6.72
2023-04-05T13:21:22.181Z,7.00
2023-04-05T13:23:56.511Z,7.00
2023-04-05T13:26:31.677Z,7.57
2023-04-05T13:29:05.236Z,8.07
2023-04-05T13:31:38.264Z,6.97
2023-04-05T13:34:11.364Z,6.65
2023-04-05T13:36:44.340Z,6.72
2023-04-05T13:39:18.654Z,7.28
2023-04-05T13:41:51.623Z,6.60
2023-04-05T13:44:24.722Z,7.03
2023-04-05T13:46:57.722Z,7.03
2023-04-05T13:49:30.746Z,6.85
2023-04-05T13:52:03.736Z,6.93
2023-04-05T13:54:38.147Z,7.43
2023-04-05T13:57:12.036Z,6.60
2023-04-05T13:59:45.293Z,6.60
2023-04-05T14:02:20.684Z,7.60
2023-04-05T14:04:53.921Z,7.28
2023-04-05T14:07:26.937Z,7.40
2023-04-05T14:10:01.294Z,6.68
2023-04-05T14:12:35.364Z,6.70
2023-04-05T14:15:09.414Z,7.10
2023-04-05T14:17:42.651Z,7.25
2023-04-05T14:20:15.789Z,7.15
2023-04-05T14:22:48.751Z,7.03
2023-04-05T14:25:23.033Z,6.90
2023-04-05T14:27:56.039Z,6.00
2023-04-05T14:30:29.212Z,7.47
2023-04-05T14:33:02.588Z,6.97
2023-04-05T14:35:35.715Z,6.70
2023-04-05T14:38:08.697Z,6.03
2023-04-05T14:40:43.893Z,6.30
2023-04-05T14:43:16.865Z,6.63
2023-04-05T14:45:49.927Z,6.97
2023-04-05T14:48:22.892Z,6.28
2023-04-05T14:50:56.764Z,5.43
2023-04-05T14:53:29.821Z,6.97
2023-04-05T14:56:04.590Z,6.40
2023-04-05T14:58:37.711Z,6.63
2023-04-05T15:01:11.033Z,5.95
2023-04-05T15:03:44.233Z,6.22
2023-04-05T15:06:17.343Z,5.72
2023-04-05T15:08:51.333Z,6.43
2023-04-05T15:11:25.640Z,6.32
2023-04-05T15:13:58.613Z,6.82
2023-04-05T15:16:31.597Z,6.40
2023-04-05T15:19:04.635Z,6.43
2023-04-05T15:21:39.010Z,6.57
2023-04-05T15:24:12.540Z,6.28
2023-04-05T15:26:46.855Z,5.20
2023-04-05T15:29:19.788Z,6.25
2023-04-05T15:31:52.921Z,5.47
2023-04-05T15:34:25.978Z,5.57
2023-04-05T15:36:59.011Z,5.22
2023-04-05T15:39:31.982Z,6.18
2023-04-05T15:42:06.626Z,6.30
2023-04-05T15:44:39.655Z,5.78
2023-04-05T15:47:12.610Z,5.40
2023-04-05T15:49:45.802Z,5.95
2023-04-05T15:52:19.088Z,5.68
2023-04-05T15:54:52.736Z,5.72
2023-04-05T15:57:27.013Z,5.72
2023-04-05T16:00:00.092Z,6.32
2023-04-05T16:02:33.213Z,5.88
2023-04-05T16:05:07.138Z,6.63
2023-04-05T16:07:40.175Z,5.60
2023-04-05T16:10:13.325Z,5.60
2023-04-05T16:12:47.629Z,5.60
2023-04-05T16:15:20.991Z,5.68
2023-04-05T16:17:53.996Z,6.00
2023-04-05T16:20:27.319Z,5.85
2023-04-05T16:23:00.373Z,5.85
2023-04-05T16:25:33.570Z,5.75
2023-04-05T16:28:08.085Z,5.82
2023-04-05T16:30:41.524Z,6.22
2023-04-05T16:33:14.550Z,6.10
2023-04-05T16:35:48.711Z,5.95
2023-04-05T16:38:21.710Z,5.45
2023-04-05T16:40:54.695Z,5.50
2023-04-05T16:43:29.496Z,6.25
2023-04-05T16:46:02.666Z,5.35
2023-04-05T16:48:36.195Z,5.32
2023-04-05T16:51:09.141Z,4.63
2023-04-05T16:53:42.155Z,6.28
2023-04-05T16:56:16.027Z,6.13
2023-04-05T16:58:51.276Z,7.45
2023-04-05T17:01:24.328Z,7.07
2023-04-05T17:03:59.791Z,6.20
2023-04-05T17:06:33.522Z,5.67
2023-04-05T17:09:06.694Z,5.13
2023-04-05T17:11:39.847Z,4.83
2023-04-05T17:14:14.122Z,6.07
2023-04-05T17:16:47.937Z,5.60
2023-04-05T17:19:20.905Z,5.30
2023-04-05T17:21:53.879Z,9.53
2023-04-05T17:24:27.519Z,11.07
2023-04-05T17:27:01.122Z,9.90
2023-04-05T17:29:35.448Z,10.70
2023-04-05T17:32:08.702Z,7.97
2023-04-05T17:34:41.901Z,7.10
2023-04-05T17:37:14.797Z,6.10
2023-04-05T17:39:47.744Z,6.03
2023-04-05T17:42:20.772Z,6.27
2023-04-05T17:44:56.658Z,6.63
2023-04-05T17:47:29.780Z,6.60
2023-04-05T17:50:03.079Z,6.63
2023-04-05T17:52:36.072Z,6.90
2023-04-05T17:55:10.299Z,6.30
2023-04-05T17:57:43.214Z,5.77
2023-04-05T18:00:18.840Z,6.97
2023-04-05T18:02:52.285Z,5.60
2023-04-05T18:05:27.060Z,5.83
2023-04-05T18:08:00.229Z,6.23
2023-04-05T18:10:33.326Z,5.07
2023-04-05T18:13:06.402Z,5.00
2023-04-05T18:15:41.315Z,5.23
2023-04-05T18:18:14.263Z,5.40
2023-04-05T18:20:50.770Z,5.00
2023-04-05T18:23:24.789Z,5.27
2023-04-05T18:25:59.544Z,7.40
2023-04-05T18:28:32.546Z,8.77
2023-04-05T18:31:09.524Z,6.83
2023-04-05T18:33:42.795Z,8.57
2023-04-05T18:36:15.782Z,8.97
2023-04-05T18:38:48.798Z,6.00
2023-04-05T18:41:21.943Z,5.10
2023-04-05T18:43:55.225Z,5.50
2023-04-05T18:46:29.559Z,6.27
2023-04-05T18:49:02.593Z,6.33
2023-04-05T18:51:35.618Z,6.27
2023-04-05T18:54:08.725Z,6.63
2023-04-05T18:56:41.695Z,6.83
2023-04-05T18:59:16.170Z,8.50
2023-04-05T19:01:50.598Z,7.57
2023-04-05T19:04:23.628Z,7.10
2023-04-05T19:06:57.599Z,7.30
2023-04-05T19:09:31.038Z,6.80
2023-04-05T19:12:04.283Z,5.87
2023-04-05T19:14:37.396Z,6.77
2023-04-05T19:17:11.727Z,6.80
2023-04-05T19:19:44.671Z,6.40
2023-04-05T19:22:17.678Z,6.73
2023-04-05T19:24:50.866Z,6.80
2023-04-05T19:27:23.803Z,6.70
2023-04-05T19:29:57.585Z,6.60
2023-04-05T19:32:31.949Z,6.77
2023-04-05T19:35:06.910Z,6.73
2023-04-05T19:37:39.950Z,6.97
2023-04-05T19:40:13.126Z,6.37
2023-04-05T19:42:48.976Z,6.87
2023-04-05T19:45:26.775Z,6.70
2023-04-05T19:48:03.240Z,5.90
2023-04-05T19:50:55.016Z,6.20
2023-04-05T19:53:41.704Z,6.33
2023-04-05T19:56:18.717Z,6.40
2023-04-05T19:58:59.963Z,6.80
2023-04-05T20:01:36.071Z,6.23
2023-04-05T20:04:16.119Z,6.13
2023-04-05T20:06:53.164Z,6.10
2023-04-05T20:09:29.238Z,6.80
2023-04-05T20:12:05.637Z,6.67
2023-04-05T20:14:43.005Z,7.00
2023-04-05T20:17:18.869Z,6.77
2023-04-05T20:20:01.044Z,6.73
2023-04-05T20:22:34.198Z,7.10
2023-04-05T20:25:38.447Z,7.37
2023-04-05T20:28:38.621Z,8.33
2023-04-05T20:31:18.876Z,8.03
2023-04-05T20:33:55.078Z,6.97
2023-04-05T20:36:34.456Z,6.50
2023-04-05T20:39:08.057Z,6.80
2023-04-05T20:41:41.465Z,6.03
2023-04-05T20:44:14.460Z,6.83
2023-04-05T20:46:47.436Z,7.30
2023-04-05T20:49:20.417Z,7.20
2023-04-05T20:51:55.675Z,7.73
2023-04-05T20:54:28.956Z,8.17
2023-04-05T20:57:02.949Z,7.27
2023-04-05T20:59:36.039Z,7.50
2023-04-05T21:02:09.130Z,8.20
2023-04-05T21:04:42.419Z,8.27
2023-04-05T21:07:17.575Z,8.17
2023-04-05T21:09:50.660Z,8.00
2023-04-05T21:12:23.614Z,8.23
2023-04-05T21:14:56.569Z,8.03
2023-04-05T21:17:29.691Z,8.30
2023-04-05T21:20:02.678Z,8.70
2023-04-05T21:22:38.027Z,8.13
2023-04-05T21:25:11.236Z,8.43
2023-04-05T21:27:44.205Z,8.63
2023-04-05T21:30:17.988Z,7.60
2023-04-05T21:32:51.316Z,7.70
2023-04-05T21:35:24.578Z,8.83
2023-04-05T21:37:58.951Z,8.00
2023-04-05T21:40:32.299Z,8.30
2023-04-05T21:43:05.463Z,8.00
2023-04-05T21:45:38.425Z,9.27
2023-04-05T21:48:11.395Z,8.50
2023-04-05T21:50:44.370Z,8.67
2023-04-05T21:53:18.835Z,9.00
2023-04-05T21:55:52.508Z,8.30
2023-04-05T21:58:26.411Z,8.90
2023-04-05T22:01:00.279Z,8.80
2023-04-05T22:03:33.308Z,9.07
2023-04-05T22:06:06.858Z,9.03
2023-04-05T22:08:41.200Z,9.10
2023-04-05T22:11:14.310Z,8.63
2023-04-05T22:13:47.483Z,8.87
2023-04-05T22:16:20.471Z,10.70
2023-04-05T22:18:53.407Z,10.23
2023-04-05T22:21:26.532Z,9.60
2023-04-05T22:24:00.962Z,8.83
2023-04-05T22:26:34.272Z,9.70
2023-04-05T22:29:07.984Z,8.87
2023-04-05T22:31:41.437Z,9.23
2023-04-05T22:34:14.447Z,8.47
2023-04-05T22:36:47.435Z,8.37
2023-04-05T22:39:21.777Z,9.13
2023-04-05T22:41:54.785Z,9.00
2023-04-05T22:44:27.706Z,9.50
2023-04-05T22:47:00.675Z,9.00
2023-04-05T22:49:33.675Z,9.00
2023-04-05T22:52:06.744Z,9.70
2023-04-05T22:54:41.289Z,9.80
2023-04-05T22:57:14.343Z,9.93
2023-04-05T22:59:47.271Z,8.80
2023-04-05T23:02:20.805Z,9.50
2023-04-05T23:04:53.787Z,9.57
2023-04-05T23:07:29.019Z,9.43
2023-04-05T23:10:03.314Z,9.70
2023-04-05T23:12:36.291Z,11.10
2023-04-05T23:15:10.549Z,10.70
2023-04-05T23:17:43.531Z,9.17
2023-04-05T23:20:16.827Z,9.37
2023-04-05T23:22:49.972Z,10.10
2023-04-05T23:25:24.360Z,10.20
2023-04-05T23:27:57.297Z,10.67
2023-04-05T23:30:30.228Z,10.20
2023-04-05T23:33:03.291Z,11.07
2023-04-05T23:35:36.362Z,11.10
2023-04-05T23:38:09.325Z,10.30
2023-04-05T23:40:43.586Z,10.50
2023-04-05T23:43:16.635Z,10.20
2023-04-05T23:45:49.585Z,11.33
2023-04-05T23:48:22.524Z,11.50
2023-04-05T23:50:55.456Z,11.40
2023-04-05T23:53:28.410Z,11.10
2023-04-05T23:56:02.734Z,11.53
2023-04-05T23:58:35.737Z,11.20
